createdAt,value
2023-03-07T00:00:16.525Z,4.54
2023-03-07T00:02:43.496Z,4.54
2023-03-07T00:05:10.468Z,4.54
2023-03-07T00:07:37.425Z,4.53
2023-03-07T00:10:04.884Z,4.48
2023-03-07T00:12:31.777Z,4.47
2023-03-07T00:14:58.784Z,4.46
2023-03-07T00:17:25.892Z,4.45
2023-03-07T00:19:52.869Z,4.42
2023-03-07T00:22:19.733Z,4.39
2023-03-07T00:24:48.730Z,4.38
2023-03-07T00:27:15.713Z,4.35
2023-03-07T00:29:42.662Z,4.31
2023-03-07T00:32:09.655Z,4.22
2023-03-07T00:34:36.673Z,4.19
2023-03-07T00:37:03.690Z,4.17
2023-03-07T00:39:30.644Z,4.16
2023-03-07T00:41:57.596Z,4.16
2023-03-07T00:44:25.537Z,4.16
2023-03-07T00:46:53.058Z,4.15
2023-03-07T00:49:20.933Z,4.16
2023-03-07T00:51:48.424Z,4.15
2023-03-07T00:54:15.824Z,4.16
2023-03-07T00:56:42.889Z,4.18
2023-03-07T00:59:10.264Z,4.17
2023-03-07T01:01:38.210Z,4.19
2023-03-07T01:04:05.538Z,4.17
2023-03-07T01:06:34.030Z,4.17
2023-03-07T01:09:05.592Z,4.18
2023-03-07T01:11:35.780Z,4.15
2023-03-07T01:14:06.118Z,4.14
2023-03-07T01:16:38.193Z,4.13
2023-03-07T01:19:12.442Z,4.11
2023-03-07T01:21:42.032Z,4.10
2023-03-07T01:24:14.834Z,4.09
2023-03-07T01:26:42.961Z,4.10
2023-03-07T01:29:11.676Z,4.09
2023-03-07T01:31:39.907Z,4.10
2023-03-07T01:34:07.215Z,4.09
2023-03-07T01:36:37.576Z,4.09
2023-03-07T01:39:17.306Z,4.10
2023-03-07T01:42:07.500Z,4.08
2023-03-07T01:45:04.073Z,4.08
2023-03-07T01:47:48.823Z,4.06
2023-03-07T01:50:18.831Z,4.08
2023-03-07T01:52:52.352Z,4.07
2023-03-07T01:55:26.666Z,4.07
2023-03-07T01:58:05.932Z,4.07
2023-03-07T02:00:36.258Z,4.06
2023-03-07T02:03:11.006Z,4.08
2023-03-07T02:05:50.170Z,4.06
2023-03-07T02:08:22.163Z,4.04
2023-03-07T02:10:49.816Z,4.03
2023-03-07T02:13:17.209Z,4.04
2023-03-07T02:15:45.082Z,4.07
2023-03-07T02:18:19.951Z,4.07
2023-03-07T02:21:00.568Z,4.09
2023-03-07T02:23:53.097Z,4.11
2023-03-07T02:26:23.191Z,4.10
2023-03-07T02:28:51.008Z,4.10
2023-03-07T02:31:18.644Z,4.11
2023-03-07T02:33:45.908Z,4.13
2023-03-07T02:36:35.845Z,4.15
2023-03-07T02:39:12.635Z,4.15
2023-03-07T02:41:40.597Z,4.16
2023-03-07T02:44:19.305Z,4.17
2023-03-07T02:46:46.636Z,4.18
2023-03-07T02:49:14.225Z,4.18
2023-03-07T02:51:41.200Z,4.15
2023-03-07T02:54:08.439Z,4.12
2023-03-07T02:56:36.201Z,4.14
2023-03-07T02:59:03.359Z,4.13
2023-03-07T03:01:31.216Z,4.14
2023-03-07T03:03:58.259Z,4.14
2023-03-07T03:06:25.340Z,4.15
2023-03-07T03:08:52.348Z,4.17
2023-03-07T03:11:19.349Z,4.16
2023-03-07T03:13:46.497Z,4.15
2023-03-07T03:16:13.627Z,4.16
2023-03-07T03:18:40.601Z,4.13
2023-03-07T03:21:12.474Z,4.14
2023-03-07T03:23:40.741Z,4.12
2023-03-07T03:26:11.643Z,4.12
2023-03-07T03:28:39.902Z,4.11
2023-03-07T03:31:11.281Z,4.10
2023-03-07T03:33:39.936Z,4.10
2023-03-07T03:36:16.330Z,4.10
2023-03-07T03:38:45.869Z,4.09
2023-03-07T03:41:17.943Z,4.08
2023-03-07T03:43:48.148Z,4.08
2023-03-07T03:46:17.013Z,4.07
2023-03-07T03:48:44.531Z,4.07
2023-03-07T03:51:16.560Z,4.07
2023-03-07T03:53:43.585Z,4.05
2023-03-07T03:56:17.951Z,4.06
2023-03-07T03:58:55.375Z,4.05
2023-03-07T04:01:26.687Z,4.05
2023-03-07T04:03:54.954Z,4.03
2023-03-07T04:06:32.746Z,4.02
2023-03-07T04:09:03.082Z,3.97
2023-03-07T04:11:30.160Z,3.99
2023-03-07T04:13:57.232Z,3.99
2023-03-07T04:16:24.312Z,3.99
2023-03-07T04:18:52.421Z,4.00
2023-03-07T04:21:21.468Z,4.02
2023-03-07T04:23:50.473Z,3.99
2023-03-07T04:26:17.984Z,3.99
2023-03-07T04:28:45.131Z,3.98
2023-03-07T04:31:25.823Z,3.99
2023-03-07T04:33:55.998Z,4.00
2023-03-07T04:36:24.767Z,4.00
2023-03-07T04:38:52.964Z,4.00
2023-03-07T04:41:26.108Z,4.01
2023-03-07T04:43:57.804Z,3.99
2023-03-07T04:46:26.605Z,3.98
2023-03-07T04:48:54.045Z,3.97
2023-03-07T04:51:21.811Z,3.99
2023-03-07T04:53:49.891Z,3.97
2023-03-07T04:56:17.311Z,3.97
2023-03-07T04:58:45.514Z,3.97
2023-03-07T05:01:13.629Z,3.94
2023-03-07T05:03:41.212Z,3.96
2023-03-07T05:06:14.708Z,3.94
2023-03-07T05:08:43.639Z,3.93
2023-03-07T05:11:10.865Z,3.95
2023-03-07T05:13:38.048Z,3.96
2023-03-07T05:16:05.939Z,3.94
2023-03-07T05:18:33.059Z,3.95
2023-03-07T05:21:00.824Z,3.96
2023-03-07T05:23:28.625Z,3.94
2023-03-07T05:25:56.232Z,3.94
2023-03-07T05:28:24.678Z,3.92
2023-03-07T05:30:52.835Z,3.92
2023-03-07T05:33:20.237Z,3.93
2023-03-07T05:35:48.187Z,3.88
2023-03-07T05:38:15.842Z,3.88
2023-03-07T05:40:43.088Z,3.87
2023-03-07T05:43:11.524Z,3.87
2023-03-07T05:45:38.874Z,3.87
2023-03-07T05:48:06.446Z,3.87
2023-03-07T05:50:33.463Z,3.95
2023-03-07T05:53:00.495Z,3.99
2023-03-07T05:55:30.513Z,4.03
2023-03-07T05:57:58.440Z,4.03
2023-03-07T06:00:26.119Z,4.02
2023-03-07T06:02:57.101Z,4.08
2023-03-07T06:05:25.445Z,4.02
2023-03-07T06:07:52.878Z,3.92
2023-03-07T06:10:21.048Z,3.87
2023-03-07T06:12:53.887Z,3.80
2023-03-07T06:15:24.472Z,3.72
2023-03-07T06:17:56.421Z,3.62
2023-03-07T06:20:24.503Z,3.50
2023-03-07T06:22:54.269Z,3.40
2023-03-07T06:25:21.926Z,3.38
2023-03-07T06:27:49.751Z,3.33
2023-03-07T06:30:17.613Z,3.28
2023-03-07T06:32:45.285Z,3.25
2023-03-07T06:35:12.484Z,3.20
2023-03-07T06:37:39.495Z,3.18
2023-03-07T06:40:09.413Z,3.15
2023-03-07T06:42:38.347Z,3.11
2023-03-07T06:45:06.918Z,3.12
2023-03-07T06:47:34.417Z,3.09
2023-03-07T06:50:02.418Z,3.10
2023-03-07T06:52:31.145Z,3.06
2023-03-07T06:54:59.381Z,3.00
2023-03-07T06:57:26.506Z,2.91
2023-03-07T06:59:53.444Z,2.86
2023-03-07T07:02:20.504Z,2.84
2023-03-07T07:04:47.919Z,2.79
2023-03-07T07:07:15.266Z,2.76
2023-03-07T07:09:42.766Z,2.72
2023-03-07T07:12:09.791Z,2.69
2023-03-07T07:14:36.817Z,2.67
2023-03-07T07:17:03.890Z,2.67
2023-03-07T07:19:31.857Z,2.60
2023-03-07T07:21:59.622Z,2.58
2023-03-07T07:24:27.605Z,2.52
2023-03-07T07:26:55.869Z,2.44
2023-03-07T07:29:23.896Z,2.38
2023-03-07T07:31:52.041Z,2.32
2023-03-07T07:34:20.226Z,2.31
2023-03-07T07:36:48.226Z,2.31
2023-03-07T07:39:16.089Z,2.30
2023-03-07T07:41:45.290Z,2.25
2023-03-07T07:44:13.785Z,2.19
2023-03-07T07:46:54.035Z,2.13
2023-03-07T07:49:21.826Z,2.08
2023-03-07T07:51:50.074Z,2.04
2023-03-07T07:54:17.326Z,2.01
2023-03-07T07:56:44.561Z,2.01
2023-03-07T07:59:12.519Z,2.00
2023-03-07T08:01:39.488Z,1.94
2023-03-07T08:04:06.487Z,1.93
2023-03-07T08:06:33.507Z,1.86
2023-03-07T08:09:00.939Z,1.83
2023-03-07T08:11:28.030Z,1.86
2023-03-07T08:13:55.980Z,1.82
2023-03-07T08:16:24.254Z,1.82
2023-03-07T08:18:58.342Z,1.81
2023-03-07T08:21:26.165Z,1.77
2023-03-07T08:23:55.212Z,1.73
2023-03-07T08:26:23.180Z,1.66
2023-03-07T08:28:50.155Z,1.56
2023-03-07T08:31:23.392Z,1.50
2023-03-07T08:33:52.109Z,1.43
2023-03-07T08:36:20.143Z,1.38
2023-03-07T08:38:52.139Z,1.37
2023-03-07T08:41:21.378Z,1.37
2023-03-07T08:43:48.496Z,1.37
2023-03-07T08:46:15.739Z,1.40
2023-03-07T08:48:42.868Z,1.39
2023-03-07T08:51:15.689Z,1.42
2023-03-07T08:53:44.815Z,1.46
2023-03-07T08:56:15.459Z,1.45
2023-03-07T08:58:43.421Z,1.44
2023-03-07T09:01:10.964Z,1.41
2023-03-07T09:03:37.897Z,1.42
2023-03-07T09:06:05.921Z,1.45
2023-03-07T09:08:33.074Z,1.46
2023-03-07T09:11:03.594Z,1.52
2023-03-07T09:13:33.012Z,1.57
2023-03-07T09:16:07.593Z,1.60
2023-03-07T09:18:35.597Z,1.60
2023-03-07T09:21:05.373Z,1.61
2023-03-07T09:23:33.167Z,1.67
2023-03-07T09:26:01.808Z,1.73
2023-03-07T09:28:28.878Z,1.80
2023-03-07T09:30:55.857Z,1.85
2023-03-07T09:33:23.353Z,1.89
2023-03-07T09:35:50.374Z,1.92
2023-03-07T09:38:17.412Z,1.94
2023-03-07T09:40:47.881Z,1.98
2023-03-07T09:43:26.821Z,2.04
2023-03-07T09:46:50.544Z,2.09
2023-03-07T09:49:34.250Z,2.13
2023-03-07T09:52:03.968Z,2.19
2023-03-07T09:55:01.155Z,2.32
2023-03-07T09:57:34.556Z,2.35
2023-03-07T10:00:21.690Z,2.25
2023-03-07T10:03:13.298Z,2.28
2023-03-07T10:05:49.111Z,2.32
2023-03-07T10:08:23.543Z,2.41
2023-03-07T10:11:09.060Z,2.47
2023-03-07T10:13:57.195Z,2.55
2023-03-07T10:16:50.666Z,2.62
2023-03-07T10:19:57.186Z,2.67
2023-03-07T10:22:48.736Z,2.66
2023-03-07T10:26:01.743Z,2.66
2023-03-07T10:28:35.238Z,2.78
2023-03-07T10:31:25.872Z,2.85
2023-03-07T10:33:54.987Z,2.86
2023-03-07T10:36:55.238Z,2.92
2023-03-07T10:39:52.517Z,2.95
2023-03-07T10:42:23.607Z,2.97
2023-03-07T10:44:52.030Z,2.98
2023-03-07T10:47:22.561Z,3.01
2023-03-07T10:49:56.652Z,3.02
2023-03-07T10:52:41.256Z,3.14
2023-03-07T10:55:44.523Z,3.20
2023-03-07T10:58:26.756Z,3.25
2023-03-07T11:01:06.237Z,3.39
2023-03-07T11:03:55.233Z,3.51
2023-03-07T11:06:52.456Z,3.57
2023-03-07T11:09:22.520Z,3.73
2023-03-07T11:12:04.760Z,3.85
2023-03-07T11:14:51.709Z,3.95
2023-03-07T11:17:31.665Z,4.09
2023-03-07T11:19:59.078Z,4.17
2023-03-07T11:22:35.720Z,4.20
2023-03-07T11:25:08.748Z,4.30
2023-03-07T11:27:51.319Z,4.42
2023-03-07T11:30:23.948Z,4.54
2023-03-07T11:33:07.601Z,4.60
2023-03-07T11:36:01.756Z,4.64
2023-03-07T11:38:51.454Z,4.50
2023-03-07T11:41:41.874Z,4.40
2023-03-07T11:44:30.892Z,4.24
2023-03-07T11:47:18.170Z,4.07
2023-03-07T11:50:05.857Z,3.93
2023-03-07T11:53:30.272Z,3.94
2023-03-07T11:56:24.802Z,4.08
2023-03-07T11:59:44.402Z,4.03
2023-03-07T12:03:03.750Z,4.03
2023-03-07T12:05:58.810Z,4.12
2023-03-07T12:08:44.973Z,4.13
2023-03-07T12:11:30.601Z,4.17
2023-03-07T12:14:45.834Z,4.19
2023-03-07T12:17:41.186Z,4.22
2023-03-07T12:20:15.007Z,4.16
2023-03-07T12:23:04.837Z,4.13
2023-03-07T12:25:50.245Z,4.15
2023-03-07T12:28:32.162Z,4.18
2023-03-07T12:31:29.910Z,4.27
2023-03-07T12:34:14.533Z,4.24
2023-03-07T12:37:07.291Z,4.25
2023-03-07T12:39:53.516Z,4.24
2023-03-07T12:42:35.322Z,4.24
2023-03-07T12:45:09.931Z,4.12
2023-03-07T12:47:57.815Z,3.94
2023-03-07T12:50:52.886Z,3.82
2023-03-07T12:53:35.451Z,3.86
2023-03-07T12:56:30.499Z,4.01
2023-03-07T12:59:11.458Z,4.18
2023-03-07T13:01:50.705Z,4.28
2023-03-07T13:04:32.011Z,4.17
2023-03-07T13:07:27.020Z,4.07
2023-03-07T13:09:58.639Z,4.12
2023-03-07T13:12:29.530Z,4.20
2023-03-07T13:15:19.630Z,4.28
2023-03-07T13:17:46.483Z,4.29
2023-03-07T13:20:19.302Z,4.33
2023-03-07T13:22:46.157Z,4.35
2023-03-07T13:25:22.317Z,4.39
2023-03-07T13:28:01.005Z,4.42
2023-03-07T13:30:30.582Z,4.38
2023-03-07T13:33:23.547Z,4.30
2023-03-07T13:36:00.013Z,4.22
2023-03-07T13:38:34.404Z,4.18
2023-03-07T13:41:04.919Z,4.15
2023-03-07T13:43:54.419Z,4.17
2023-03-07T13:46:43.237Z,4.22
2023-03-07T13:49:10.225Z,4.29
2023-03-07T13:51:37.284Z,4.33
2023-03-07T13:54:11.505Z,4.35
2023-03-07T13:56:44.645Z,4.28
2023-03-07T13:59:25.630Z,4.18
2023-03-07T14:02:12.537Z,4.01
2023-03-07T14:04:55.351Z,3.63
2023-03-07T14:07:39.837Z,3.09
2023-03-07T14:10:28.757Z,2.59
2023-03-07T14:13:44.453Z,2.32
2023-03-07T14:16:27.805Z,2.19
2023-03-07T14:19:05.705Z,2.17
2023-03-07T14:21:50.557Z,2.23
2023-03-07T14:24:41.586Z,2.31
2023-03-07T14:27:16.801Z,2.39
2023-03-07T14:29:57.012Z,2.43
2023-03-07T14:32:31.918Z,2.46
2023-03-07T14:34:59.711Z,2.47
2023-03-07T14:37:29.991Z,2.48
2023-03-07T14:39:59.643Z,2.47
2023-03-07T14:42:55.043Z,2.48
2023-03-07T14:45:51.213Z,2.50
2023-03-07T14:48:54.571Z,2.33
2023-03-07T14:51:27.974Z,2.07
2023-03-07T14:53:57.423Z,1.91
2023-03-07T14:56:34.885Z,1.89
2023-03-07T14:59:04.614Z,1.90
2023-03-07T15:01:37.033Z,1.93
2023-03-07T15:04:20.774Z,1.94
2023-03-07T15:06:53.581Z,1.94
2023-03-07T15:09:21.437Z,1.91
2023-03-07T15:12:15.663Z,1.87
2023-03-07T15:14:56.385Z,1.90
2023-03-07T15:17:29.692Z,1.93
2023-03-07T15:20:02.988Z,1.91
2023-03-07T15:22:40.145Z,1.92
2023-03-07T15:25:19.436Z,1.88
2023-03-07T15:27:48.079Z,1.79
2023-03-07T15:30:31.184Z,1.76
2023-03-07T15:33:13.964Z,1.72
2023-03-07T15:35:42.622Z,1.74
2023-03-07T15:38:25.983Z,1.76
2023-03-07T15:40:52.994Z,1.74
2023-03-07T15:43:34.740Z,1.77
2023-03-07T15:46:23.077Z,1.76
2023-03-07T15:48:53.952Z,1.75
2023-03-07T15:51:24.774Z,1.77
2023-03-07T15:54:16.754Z,1.81
2023-03-07T15:56:45.392Z,1.81
2023-03-07T15:59:37.168Z,1.75
2023-03-07T16:02:32.423Z,1.67
2023-03-07T16:05:07.394Z,1.61
2023-03-07T16:07:34.378Z,1.54
2023-03-07T16:10:01.344Z,1.51
2023-03-07T16:12:28.599Z,1.49
2023-03-07T16:15:03.382Z,1.50
2023-03-07T16:17:36.451Z,1.50
2023-03-07T16:20:13.330Z,1.50
2023-03-07T16:22:40.182Z,1.45
2023-03-07T16:25:07.737Z,1.40
2023-03-07T16:27:34.654Z,1.38
2023-03-07T16:30:13.625Z,1.34
2023-03-07T16:32:40.604Z,1.31
2023-03-07T16:35:26.444Z,1.30
2023-03-07T16:37:55.037Z,1.24
2023-03-07T16:40:22.985Z,1.21
2023-03-07T16:42:50.686Z,1.22
2023-03-07T16:45:28.623Z,1.20
2023-03-07T16:47:59.646Z,1.20
2023-03-07T16:50:31.961Z,1.24
2023-03-07T16:52:59.740Z,1.28
2023-03-07T16:55:27.074Z,1.31
2023-03-07T16:58:00.611Z,1.34
2023-03-07T17:00:28.800Z,1.38
2023-03-07T17:03:00.672Z,1.42
2023-03-07T17:05:30.476Z,1.43
2023-03-07T17:07:58.980Z,1.43
2023-03-07T17:10:27.278Z,1.44
2023-03-07T17:12:57.437Z,1.44
2023-03-07T17:15:30.472Z,1.45
2023-03-07T17:17:59.455Z,1.46
2023-03-07T17:20:27.380Z,1.47
2023-03-07T17:22:54.383Z,1.48
2023-03-07T17:25:22.960Z,1.49
2023-03-07T17:27:59.629Z,1.48
2023-03-07T17:30:30.773Z,1.47
2023-03-07T17:32:58.210Z,1.46
2023-03-07T17:35:25.728Z,1.46
2023-03-07T17:37:53.479Z,1.46
2023-03-07T17:40:22.247Z,1.44
2023-03-07T17:42:51.677Z,1.42
2023-03-07T17:45:18.824Z,1.44
2023-03-07T17:47:54.011Z,1.42
2023-03-07T17:50:25.934Z,1.42
2023-03-07T17:52:55.048Z,1.41
2023-03-07T17:55:26.042Z,1.40
2023-03-07T17:57:53.493Z,1.38
2023-03-07T18:00:21.440Z,1.36
2023-03-07T18:02:49.229Z,1.36
2023-03-07T18:05:17.517Z,1.36
2023-03-07T18:07:49.412Z,1.34
2023-03-07T18:10:17.584Z,1.35
2023-03-07T18:12:46.493Z,1.33
2023-03-07T18:15:19.665Z,1.33
2023-03-07T18:17:49.262Z,1.31
2023-03-07T18:20:20.754Z,1.31
2023-03-07T18:22:49.030Z,1.30
2023-03-07T18:25:18.013Z,1.27
2023-03-07T18:27:45.635Z,1.27
2023-03-07T18:30:14.058Z,1.24
2023-03-07T18:32:41.303Z,1.22
2023-03-07T18:35:08.913Z,1.19
2023-03-07T18:37:36.683Z,1.20
2023-03-07T18:40:04.720Z,1.19
2023-03-07T18:42:34.293Z,1.17
2023-03-07T18:45:01.326Z,1.14
2023-03-07T18:47:28.297Z,1.14
2023-03-07T18:49:57.626Z,1.09
2023-03-07T18:52:24.582Z,1.07
2023-03-07T18:54:51.569Z,1.06
2023-03-07T18:57:18.501Z,1.06
2023-03-07T18:59:45.549Z,1.05
2023-03-07T19:02:12.694Z,1.06
2023-03-07T19:04:39.689Z,1.07
2023-03-07T19:07:06.656Z,1.07
2023-03-07T19:09:33.777Z,1.08
2023-03-07T19:12:00.788Z,1.08
2023-03-07T19:14:27.754Z,1.07
2023-03-07T19:16:54.840Z,1.05
2023-03-07T19:19:21.861Z,1.04
2023-03-07T19:21:48.834Z,1.04
2023-03-07T19:24:15.823Z,1.04
2023-03-07T19:26:43.344Z,1.05
2023-03-07T19:29:12.154Z,1.04
2023-03-07T19:31:40.881Z,1.04
2023-03-07T19:34:09.824Z,1.03
2023-03-07T19:36:37.437Z,1.01
2023-03-07T19:39:05.564Z,1.01
2023-03-07T19:41:32.911Z,1.05
2023-03-07T19:44:00.768Z,1.07
2023-03-07T19:46:28.153Z,1.10
2023-03-07T19:48:56.008Z,1.03
2023-03-07T19:51:26.147Z,0.97
2023-03-07T19:53:56.966Z,0.87
2023-03-07T19:56:28.587Z,0.84
2023-03-07T19:58:57.450Z,0.75
2023-03-07T20:01:25.997Z,0.67
2023-03-07T20:03:54.722Z,0.57
2023-03-07T20:06:26.938Z,0.51
2023-03-07T20:08:55.882Z,0.45
2023-03-07T20:11:27.200Z,0.39
2023-03-07T20:13:57.153Z,0.33
2023-03-07T20:16:27.588Z,0.28
2023-03-07T20:18:58.509Z,0.24
2023-03-07T20:21:28.425Z,0.18
2023-03-07T20:23:59.565Z,0.11
2023-03-07T20:26:37.225Z,0.11
2023-03-07T20:29:06.632Z,0.05
2023-03-07T20:31:33.736Z,-0.02
2023-03-07T20:34:00.903Z,-0.04
2023-03-07T20:36:31.159Z,-0.06
2023-03-07T20:39:01.802Z,-0.08
2023-03-07T20:41:32.355Z,-0.12
2023-03-07T20:44:03.772Z,-0.16
2023-03-07T20:46:32.149Z,-0.17
2023-03-07T20:49:01.795Z,-0.19
2023-03-07T20:51:32.510Z,-0.21
2023-03-07T20:54:06.982Z,-0.20
2023-03-07T20:56:36.445Z,-0.24
2023-03-07T20:59:04.817Z,-0.28
2023-03-07T21:01:34.217Z,-0.31
2023-03-07T21:04:10.567Z,-0.33
2023-03-07T21:06:41.645Z,-0.36
2023-03-07T21:09:22.844Z,-0.39
2023-03-07T21:11:56.427Z,-0.41
2023-03-07T21:14:26.255Z,-0.45
2023-03-07T21:16:53.266Z,-0.45
2023-03-07T21:19:21.130Z,-0.47
2023-03-07T21:21:48.125Z,-0.49
2023-03-07T21:24:15.715Z,-0.50
2023-03-07T21:26:43.109Z,-0.52
2023-03-07T21:29:10.898Z,-0.53
2023-03-07T21:31:38.744Z,-0.56
2023-03-07T21:34:11.087Z,-0.57
2023-03-07T21:36:38.064Z,-0.62
2023-03-07T21:39:08.038Z,-0.65
2023-03-07T21:41:36.293Z,-0.69
2023-03-07T21:44:04.143Z,-0.70
2023-03-07T21:46:31.195Z,-0.73
2023-03-07T21:48:59.629Z,-0.75
2023-03-07T21:51:26.751Z,-0.77
2023-03-07T21:53:54.171Z,-0.77
2023-03-07T21:56:23.933Z,-0.77
2023-03-07T21:58:52.302Z,-0.74
2023-03-07T22:01:27.429Z,-0.73
2023-03-07T22:03:58.155Z,-0.73
2023-03-07T22:06:26.662Z,-0.70
2023-03-07T22:08:54.254Z,-0.67
2023-03-07T22:11:21.407Z,-0.65
2023-03-07T22:13:48.544Z,-0.63
2023-03-07T22:16:20.457Z,-0.60
2023-03-07T22:18:56.122Z,-0.61
2023-03-07T22:21:26.073Z,-0.65
2023-03-07T22:24:00.627Z,-0.68
2023-03-07T22:26:30.598Z,-0.71
2023-03-07T22:28:58.976Z,-0.74
2023-03-07T22:31:26.363Z,-0.74
2023-03-07T22:33:53.400Z,-0.76
2023-03-07T22:36:21.098Z,-0.74
2023-03-07T22:38:53.339Z,-0.75
2023-03-07T22:41:21.931Z,-0.77
2023-03-07T22:43:48.975Z,-0.79
2023-03-07T22:46:16.001Z,-0.77
2023-03-07T22:48:43.032Z,-0.69
2023-03-07T22:51:20.234Z,-0.57
2023-03-07T22:53:47.839Z,-0.47
2023-03-07T22:56:22.349Z,-0.38
2023-03-07T22:58:49.816Z,-0.36
2023-03-07T23:01:20.874Z,-0.36
2023-03-07T23:03:50.340Z,-0.37
2023-03-07T23:06:19.191Z,-0.43
2023-03-07T23:08:49.870Z,-0.47
2023-03-07T23:11:19.258Z,-0.51
2023-03-07T23:13:46.466Z,-0.55
2023-03-07T23:16:17.696Z,-0.56
2023-03-07T23:18:46.567Z,-0.59
2023-03-07T23:21:16.391Z,-0.62
2023-03-07T23:23:44.310Z,-0.66
2023-03-07T23:26:24.797Z,-0.70
2023-03-07T23:28:52.263Z,-0.75
2023-03-07T23:31:23.919Z,-0.79
2023-03-07T23:33:58.794Z,-0.81
2023-03-07T23:36:29.210Z,-0.84
2023-03-07T23:38:58.366Z,-0.86
2023-03-07T23:41:27.245Z,-0.88
2023-03-07T23:44:00.055Z,-0.89
2023-03-07T23:46:28.109Z,-0.91
2023-03-07T23:48:56.352Z,-0.95
2023-03-07T23:51:23.664Z,-0.98
2023-03-07T23:53:50.687Z,-1.00
2023-03-07T23:56:17.604Z,-1.01
2023-03-07T23:58:47.401Z,-1.03
